Saint Felix Lauragais

FR-1037 · Upper Garonne, Occitanie, Francja

Historia METAR FR-1037 · Saint Felix Lauragais

Poniżej widzisz METAR-y z ostatnich kilku dni. Wybierz rok, aby przeglądać starsze METAR-y, począwszy od roku 2007.

13 czerwca 2024

Czas Kod Pogoda Temp. Widoczność Sufit Wiatr METAR/SPECI
06:00
V
7 °C 10 km+ - Var Var 2 kt METAR LFCK 130400Z AUTO VRB02KT CAVOK 07/07 Q1021
05:30
V
8 °C 10 km+ - Var Var 1 kt METAR LFCK 130330Z AUTO VRB01KT CAVOK 08/07 Q1021
05:00
V
8 °C 10 km+ - 290° 290° 2 kt METAR LFCK 130300Z AUTO 29002KT CAVOK 08/07 Q1021
04:30
V
9 °C 10 km+ - 270° 270° 1 kt METAR LFCK 130230Z AUTO 27001KT CAVOK 09/08 Q1021
04:00
V
9 °C 10 km+ - Var Var 2 kt METAR LFCK 130200Z AUTO VRB02KT CAVOK 09/08 Q1021
03:30
V
9 °C 10 km+ - Var Var 2 kt METAR LFCK 130130Z AUTO VRB02KT CAVOK 09/08 Q1022
03:00
V
9 °C 10 km+ - Var Var 2 kt METAR LFCK 130100Z AUTO VRB02KT CAVOK 09/08 Q1022
02:30
V
9 °C 10 km+ - Var Var 2 kt METAR LFCK 130030Z AUTO VRB02KT CAVOK 09/08 Q1022
02:00
V
10 °C 10 km+ - Var Var 2 kt METAR LFCK 130000Z AUTO VRB02KT CAVOK 10/08 Q1022
01:30
V
11 °C 10 km+ - Var Var 2 kt METAR LFCK 122330Z AUTO VRB02KT CAVOK 11/08 Q1022
01:00
V
11 °C 10 km+ - Var Var 2 kt METAR LFCK 122300Z AUTO VRB02KT CAVOK 11/08 Q1022
00:30
V
12 °C 10 km+ - Var Var 1 kt METAR LFCK 122230Z AUTO VRB01KT CAVOK 12/08 Q1022
00:00
V
14 °C 10 km+ - 280° 280° 8 kt METAR LFCK 122200Z AUTO 28008KT CAVOK 14/08 Q1021

12 czerwca 2024

Czas Kod Pogoda Temp. Widoczność Sufit Wiatr METAR/SPECI
23:30
V
14 °C 10 km+ - 300° 300° 6 kt METAR LFCK 122130Z AUTO 30006KT 270V330 CAVOK 14/08 Q1021
23:00
V
15 °C 10 km+ - 300° 300° 6 kt METAR LFCK 122100Z AUTO 30006KT CAVOK 15/07 Q1021 NOSIG
22:30
V
15 °C 10 km+ - 280° 280° 7 kt METAR LFCK 122030Z AUTO 28007KT CAVOK 15/07 Q1021 NOSIG
22:00
V
15 °C 10 km+ - 280° 280° 7 kt METAR LFCK 122000Z AUTO 28007KT CAVOK 15/07 Q1020 NOSIG
21:30
V
16 °C 10 km+ - 260° 260° 8 kt METAR LFCK 121930Z AUTO 26008KT CAVOK 16/07 Q1020 NOSIG
21:00
V
17 °C 10 km+ - 260° 260° 10 kt METAR LFCK 121900Z AUTO 26010KT CAVOK 17/08 Q1019 NOSIG
20:30
V
17 °C 10 km+ - 270° 270° 12 kt METAR LFCK 121830Z AUTO 27012KT CAVOK 17/08 Q1019 NOSIG
20:00
V
19 °C 10 km+ - 280° 280° 13 kt METAR LFCK 121800Z AUTO 28013KT CAVOK 19/08 Q1019 NOSIG
19:30
V
18 °C 10 km+ - 260° 260° 15 kt METAR LFCK 121730Z AUTO 26015KT CAVOK 18/09 Q1019 NOSIG
19:00
V
20 °C 10 km+ - 280° 280° 13 kt METAR LFCK 121700Z AUTO 28013KT CAVOK 20/07 Q1018 NOSIG
18:30
V
20 °C 10 km+ - 280° 280° 12 kt METAR LFCK 121630Z AUTO 28012KT CAVOK 20/06 Q1018 NOSIG
18:00
V
20 °C 10 km+ - 290° 290° 14 kt METAR LFCK 121600Z AUTO 29014KT 260V320 CAVOK 20/06 Q1018 NOSIG
17:30
V
20 °C 10 km+ - 290° 290° 12 kt METAR LFCK 121530Z AUTO 29012KT 260V320 CAVOK 20/06 Q1018 NOSIG
17:00
V
20 °C 10 km+ - 290° 290° 13 kt METAR LFCK 121500Z AUTO 29013KT CAVOK 20/06 Q1018 NOSIG
16:30
V
19 °C 10 km+ - 290° 290° 14 kt METAR LFCK 121430Z AUTO 29014KT CAVOK 19/06 Q1019 NOSIG
16:00
V
20 °C 10 km+ - 280° 280° 14 kt METAR LFCK 121400Z AUTO 28014KT CAVOK 20/08 Q1019 NOSIG
15:30
V
20 °C 10 km+ - 280° 280° 13 kt METAR LFCK 121330Z AUTO 28013KT 250V310 CAVOK 20/08 Q1019 NOSIG
15:00
V
20 °C 10 km+ - 280° 280° 10 kt METAR LFCK 121300Z AUTO 28010KT 250V310 CAVOK 20/08 Q1019 NOSIG
14:30
V
20 °C 10 km+ - 290° 290° 11 kt METAR LFCK 121230Z AUTO 29011KT CAVOK 20/08 Q1019 NOSIG
14:00
V
19 °C 10 km+ - 280° 280° 10 kt METAR LFCK 121200Z AUTO 28010KT CAVOK 19/07 Q1019 NOSIG
13:30
V
19 °C 10 km+ - 300° 300° 12 kt METAR LFCK 121130Z AUTO 30012KT CAVOK 19/08 Q1019 NOSIG
13:00
V
19 °C 10 km+ - 300° 300° 9 kt METAR LFCK 121100Z AUTO 30009KT CAVOK 19/07 Q1019 NOSIG
12:30
V
20 °C 10 km+ 6.000 ft 290° 290° 10 kt METAR LFCK 121030Z AUTO 29010KT 250V320 9999 FEW029 BKN060 20/08 Q1019 NOSIG
12:00
V
19 °C 10 km+ - 290° 290° 10 kt METAR LFCK 121000Z AUTO 29010KT 260V320 9999 FEW048 SCT056 19/11 Q1020 NOSIG
11:30
V
19 °C 10 km+ 9.800 ft 310° 310° 8 kt METAR LFCK 120930Z AUTO 31008KT 270V030 9999 FEW041 SCT050 BKN098 19/07 Q1020
11:00
M
17 °C 10 km+ 3.000 ft 290° 290° 8 kt METAR LFCK 120900Z AUTO 29008KT 250V340 9999 BKN030 BKN043 17/10 Q1020 NOSIG
10:30
M
17 °C 10 km+ 2.500 ft 270° 270° 7 - 18 kt METAR LFCK 120830Z AUTO 27007G18KT 220V330 9999 BKN025 BKN096 17/11 Q1020 NOSIG
10:00
M
17 °C 10 km+ 2.100 ft 280° 280° 7 kt METAR LFCK 120800Z AUTO 28007KT 230V340 9999 BKN021 BKN026 17/11 Q1020 NOSIG
09:30
M
16 °C 10 km+ 2.200 ft 300° 300° 7 kt METAR LFCK 120730Z AUTO 30007KT 270V340 9999 FEW016 BKN022 OVC092 16/11 Q1020 NOSIG
09:00
M
15 °C 10 km+ 1.300 ft 300° 300° 8 kt METAR LFCK 120700Z AUTO 30008KT 9999 BKN013 BKN020 OVC094 15/12 Q1020 BECMG SCT025
08:30
I
14 °C 10 km+ 900 ft 270° 270° 7 kt METAR LFCK 120630Z AUTO 27007KT 9999 OVC009 14/12 Q1020 BECMG SCT025
08:00
I
14 °C 10 km+ 900 ft 260° 260° 7 kt METAR LFCK 120600Z AUTO 26007KT 9999 BKN009 OVC013 14/12 Q1019 BECMG SCT025
07:30
M
14 °C 10 km+ 1.100 ft 260° 260° 8 kt METAR LFCK 120530Z AUTO 26008KT 9999 BKN011 OVC019 14/12 Q1019
07:00
M
14 °C 10 km+ 1.100 ft 260° 260° 7 kt METAR LFCK 120500Z AUTO 26007KT 9999 OVC011 14/12 Q1019
06:30
M
14 °C 10 km+ 1.300 ft 250° 250° 7 kt METAR LFCK 120430Z AUTO 25007KT 9999 BKN013 OVC020 14/12 Q1019
06:00
M
14 °C 10 km+ 1.300 ft 260° 260° 7 kt METAR LFCK 120400Z AUTO 26007KT 9999 BKN013 OVC022 14/12 Q1019
05:30
M
14 °C 10 km+ 1.300 ft 270° 270° 7 kt METAR LFCK 120330Z AUTO 27007KT 9999 BKN013 OVC021 14/13 Q1018
05:00
M
14 °C 10 km+ 1.400 ft 280° 280° 4 kt METAR LFCK 120300Z AUTO 28004KT 9999 OVC014 14/13 Q1018
04:30
M
15 °C 10 km+ 1.400 ft 270° 270° 5 kt METAR LFCK 120230Z AUTO 27005KT 9999 OVC014 15/13 Q1018
04:00
M
15 °C 10 km+ 1.500 ft 280° 280° 5 kt METAR LFCK 120200Z AUTO 28005KT 9999 OVC015 15/13 Q1018
03:30
M
15 °C 10 km+ 1.600 ft 290° 290° 6 kt METAR LFCK 120130Z AUTO 29006KT 250V310 9999 OVC016 15/13 Q1018
03:00
M
15 °C 10 km+ 1.600 ft 270° 270° 7 kt METAR LFCK 120100Z AUTO 27007KT 9999 OVC016 15/13 Q1019
02:30
M
14 °C 10 km+ 1.600 ft 270° 270° 7 kt METAR LFCK 120030Z AUTO 27007KT 9999 BKN016 14/12 Q1019
02:00
M
15 °C 10 km+ 1.900 ft 260° 260° 8 kt METAR LFCK 120000Z AUTO 26008KT 9999 BKN019 OVC024 15/12 Q1019
01:30
M
15 °C 10 km+ 1.800 ft 260° 260° 7 kt METAR LFCK 112330Z AUTO 26007KT 9999 OVC018 15/12 Q1019
01:00
M
16 °C 10 km+ 1.900 ft 280° 280° 5 kt METAR LFCK 112300Z AUTO 28005KT 9999 BKN019 BKN025 OVC052 16/13 Q1019
00:30
V
15 °C 10 km+ 3.200 ft 300° 300° 5 kt METAR LFCK 112230Z AUTO 30005KT 9999 SCT023 BKN032 BKN045 15/13 Q1019
00:00
V
15 °C 10 km+ 4.800 ft 310° 310° 4 kt METAR LFCK 112200Z AUTO 31004KT 9999 FEW023 BKN048 OVC066 15/12 Q1019

11 czerwca 2024

Czas Kod Pogoda Temp. Widoczność Sufit Wiatr METAR/SPECI
23:30
V
16 °C 10 km+ 6.200 ft Var Var 2 kt METAR LFCK 112130Z AUTO VRB02KT 9999 FEW040 SCT050 OVC062 16/12 Q1018 TEMPO BKN012
23:00
V
16 °C 10 km+ - 280° 280° 3 kt METAR LFCK 112100Z AUTO 28003KT CAVOK 16/12 Q1018 NOSIG
22:30
V
16 °C 10 km+ - 280° 280° 7 kt METAR LFCK 112030Z AUTO 28007KT 9999 -RA NSC 16/12 Q1018 NOSIG
22:00
V
16 °C 10 km+ 4.000 ft 290° 290° 8 kt METAR LFCK 112000Z AUTO 29008KT 9999 -RA BKN040/// BKN052/// OVC088/// ///TCU 16/14 Q1018 BECMG BKN018
21:30
V
16 °C 10 km+ 8.600 ft 260° 260° 7 kt METAR LFCK 111930Z AUTO 26007KT 9999 FEW037/// SCT044/// BKN086/// ///TCU 16/14 Q1017 BECMG BKN018
21:00
V
16 °C 10 km+ - 250° 250° 8 kt METAR LFCK 111900Z AUTO 25008KT 9999 ///TCU 16/14 Q1017 NOSIG
20:30
V
17 °C 10 km+ - 270° 270° 5 kt METAR LFCK 111830Z AUTO 27005KT CAVOK 17/15 Q1017 TEMPO SCT020TCU
20:00
V
17 °C 10 km+ 3.800 ft 270° 270° 5 kt METAR LFCK 111800Z AUTO 27005KT 240V300 9999 BKN038 BKN044 OVC068 17/14 Q1017 TEMPO SCT020TCU
19:30
V
17 °C 10 km+ 8.200 ft 270° 270° 7 kt METAR LFCK 111730Z AUTO 27007KT 9999 FEW022 BKN082 BKN100 17/14 Q1017 NOSIG
19:00
I
17 °C 4,9 km 3.800 ft 250° 250° 10 kt METAR LFCK 111700Z AUTO 25010KT 9999 4900 RA SCT032/// BKN038/// BKN044/// ///CB 17/14 Q1017 BECMG NSW NSC
18:30
V
19 °C 10 km+ 7.200 ft 350° 350° 9 kt METAR LFCK 111630Z AUTO 35009KT 9999 FEW041/// SCT060/// BKN072/// ///CB 19/12 Q1016 BECMG NSC
18:00
V
21 °C 10 km+ 10.000 ft 340° 340° 11 kt METAR LFCK 111600Z AUTO 34011KT 310V020 9999 FEW036/// OVC100/// ///CB 21/12 Q1016 NOSIG
17:30
V
19 °C 10 km+ 9.000 ft 320° 320° 12 kt METAR LFCK 111530Z AUTO 32012KT 9999 FEW047/// SCT074/// OVC090/// ///CB 19/11 Q1016 NOSIG
17:00
V
20 °C 10 km+ 5.600 ft 310° 310° 12 kt METAR LFCK 111500Z AUTO 31012KT 9999 SCT041 BKN056 BKN068 20/11 Q1017 TEMPO SCT025TCU
16:30
V
20 °C 10 km+ 4.000 ft 300° 300° 11 kt METAR LFCK 111430Z AUTO 30011KT 270V330 9999 BKN040 BKN047 BKN056 20/11 Q1017 TEMPO SCT025TCU
16:00
V
20 °C 10 km+ 4.800 ft 300° 300° 12 kt METAR LFCK 111400Z AUTO 30012KT 270V330 9999 FEW041 BKN048 BKN064 20/10 Q1017 TEMPO SCT025TCU
15:30
V
20 °C 10 km+ 5.800 ft 310° 310° 10 kt METAR LFCK 111330Z AUTO 31010KT 280V340 9999 FEW039 SCT049 BKN058 20/11 Q1017
15:00
V
19 °C 10 km+ 3.700 ft 310° 310° 9 kt METAR LFCK 111300Z AUTO 31009KT 280V340 9999 BKN037 OVC043 19/11 Q1017 TEMPO SCT025TCU
14:30
V
19 °C 10 km+ 4.300 ft 290° 290° 12 kt METAR LFCK 111230Z AUTO 29012KT 270V340 9999 FEW036 BKN043 BKN052 19/11 Q1017 TEMPO SCT025TCU
14:00
V
19 °C 10 km+ 4.200 ft 290° 290° 11 kt METAR LFCK 111200Z AUTO 29011KT 250V330 9999 SCT034 BKN042 BKN050 19/10 Q1017 TEMPO SCT025TCU
13:30
V
19 °C 10 km+ 6.800 ft 320° 320° 12 kt METAR LFCK 111130Z AUTO 32012KT 290V350 9999 FEW033 OVC068 19/11 Q1017 TEMPO SCT025TCU
13:00
V
18 °C 10 km+ 6.800 ft 300° 300° 12 kt METAR LFCK 111100Z AUTO 30012KT 9999 FEW033 OVC068 18/11 Q1017 TEMPO SCT025TCU
12:30
V
17 °C 10 km+ 3.800 ft 300° 300° 11 kt METAR LFCK 111030Z AUTO 30011KT 9999 SCT032 BKN038 BKN046 17/10 Q1018 TEMPO SCT025TCU
12:00
V
18 °C 10 km+ 4.800 ft 310° 310° 10 kt METAR LFCK 111000Z AUTO 31010KT 9999 SCT030 SCT040 BKN048 18/10 Q1018 TEMPO SCT025TCU
11:30
M
18 °C 10 km+ 2.900 ft 300° 300° 11 kt METAR LFCK 110930Z AUTO 30011KT 9999 BKN029 BKN035 OVC062 18/10 Q1018 TEMPO SCT025TCU
11:00
V
17 °C 10 km+ 6.000 ft 300° 300° 10 kt METAR LFCK 110900Z AUTO 30010KT 9999 SCT025 SCT033 OVC060 17/10 Q1018 TEMPO SCT025TCU
10:30
V
17 °C 10 km+ 3.700 ft 300° 300° 9 kt METAR LFCK 110830Z AUTO 30009KT 9999 SCT025 BKN037 OVC058 17/10 Q1018 BECMG BKN022TCU
10:00
V
16 °C 10 km+ 3.300 ft 310° 310° 8 kt METAR LFCK 110800Z AUTO 31008KT 280V340 9999 FEW020/// BKN033/// BKN040/// 16/11 Q1018 BECMG BKN022TCU
09:30
M
15 °C 10 km+ 1.600 ft 310° 310° 10 kt METAR LFCK 110730Z AUTO 31010KT 9999 OVC016 15/11 Q1018 BECMG BKN022TCU
09:00
M
15 °C 10 km+ 1.700 ft 300° 300° 10 kt METAR LFCK 110700Z AUTO 30010KT 9999 OVC017 15/11 Q1018 BECMG BKN022TCU
08:30
M
14 °C 10 km+ 1.400 ft 310° 310° 9 kt METAR LFCK 110630Z AUTO 31009KT 9999 BKN014 OVC022 14/11 Q1017 BECMG BKN022TCU
08:00
M
14 °C 10 km+ 1.400 ft 300° 300° 7 kt METAR LFCK 110600Z AUTO 30007KT 9999 OVC014 14/11 Q1017 BECMG BKN018
07:30
M
14 °C 10 km+ 1.600 ft 290° 290° 5 kt METAR LFCK 110530Z AUTO 29005KT 9999 OVC016 14/11 Q1017
07:00
V
14 °C 10 km+ 4.400 ft 280° 280° 5 kt METAR LFCK 110500Z AUTO 28005KT 9999 FEW016 OVC044 14/11 Q1017
06:30
V
14 °C 10 km+ 4.000 ft 300° 300° 5 kt METAR LFCK 110430Z AUTO 30005KT 9999 FEW016 SCT030 OVC040 14/11 Q1017
06:00
M
14 °C 10 km+ 2.800 ft 300° 300° 6 kt METAR LFCK 110400Z AUTO 30006KT 9999 BKN028 OVC039 14/11 Q1017
05:30
V
14 °C 10 km+ 3.900 ft 300° 300° 6 kt METAR LFCK 110330Z AUTO 30006KT 9999 BKN039 OVC056 14/10 Q1016
05:00
V
14 °C 10 km+ 3.800 ft 310° 310° 5 kt METAR LFCK 110300Z AUTO 31005KT 9999 BKN038 OVC050 14/10 Q1017
04:30
V
14 °C 10 km+ 5.200 ft 300° 300° 7 kt METAR LFCK 110230Z AUTO 30007KT 9999 FEW038 OVC052 14/10 Q1016
04:00
V
14 °C 10 km+ - 280° 280° 6 kt METAR LFCK 110200Z AUTO 28006KT CAVOK 14/10 Q1016
03:30
V
14 °C 10 km+ - 270° 270° 6 kt METAR LFCK 110130Z AUTO 27006KT CAVOK 14/10 Q1016
03:00
V
15 °C 10 km+ - 280° 280° 6 kt METAR LFCK 110100Z AUTO 28006KT CAVOK 15/09 Q1016
02:30
V
16 °C 10 km+ - 280° 280° 7 kt METAR LFCK 110030Z AUTO 28007KT CAVOK 16/10 Q1016
02:00
V
16 °C 10 km+ - 280° 280° 6 kt METAR LFCK 110000Z AUTO 28006KT CAVOK 16/10 Q1017
01:30
V
17 °C 10 km+ - 270° 270° 6 kt METAR LFCK 102330Z AUTO 27006KT CAVOK 17/10 Q1017
01:00
V
17 °C 10 km+ - 270° 270° 6 kt METAR LFCK 102300Z AUTO 27006KT CAVOK 17/10 Q1017
00:30
V
17 °C 10 km+ - 280° 280° 5 kt METAR LFCK 102230Z AUTO 28005KT CAVOK 17/10 Q1016
00:00
V
17 °C 10 km+ - 300° 300° 6 kt METAR LFCK 102200Z AUTO 30006KT CAVOK 17/10 Q1016

10 czerwca 2024

Czas Kod Pogoda Temp. Widoczność Sufit Wiatr METAR/SPECI
23:30
V
16 °C 10 km+ - 310° 310° 3 kt METAR LFCK 102130Z AUTO 31003KT 280V340 CAVOK 16/11 Q1016
23:00
V
17 °C 10 km+ - 290° 290° 5 kt METAR LFCK 102100Z AUTO 29005KT CAVOK 17/10 Q1015 NOSIG
22:30
V
18 °C 10 km+ - 270° 270° 6 kt METAR LFCK 102030Z AUTO 27006KT CAVOK 18/10 Q1015 NOSIG
22:00
V
19 °C 10 km+ - 290° 290° 7 kt METAR LFCK 102000Z AUTO 29007KT CAVOK 19/10 Q1015 NOSIG
21:30
V
20 °C 10 km+ - 300° 300° 7 kt METAR LFCK 101930Z AUTO 30007KT CAVOK 20/10 Q1014 NOSIG
21:00
V
21 °C 10 km+ - 300° 300° 8 kt METAR LFCK 101900Z AUTO 30008KT CAVOK 21/10 Q1014 NOSIG
20:30
V
22 °C 9 km - 300° 300° 10 kt METAR LFCK 101830Z AUTO 30010KT 9000 NSC 22/10 Q1014 NOSIG
20:00
V
23 °C 10 km+ - 300° 300° 13 kt METAR LFCK 101800Z AUTO 30013KT CAVOK 23/09 Q1013
19:30
V
23 °C 10 km+ - 320° 320° 12 kt METAR LFCK 101730Z AUTO 32012KT CAVOK 23/09 Q1013 NOSIG
19:00
V
24 °C 10 km+ - 320° 320° 11 kt METAR LFCK 101700Z AUTO 32011KT 300V360 CAVOK 24/09 Q1013 NOSIG
18:30
V
23 °C 10 km+ - 310° 310° 14 kt METAR LFCK 101630Z AUTO 31014KT CAVOK 23/08 Q1013 NOSIG
18:00
V
23 °C 10 km+ - 320° 320° 12 kt METAR LFCK 101600Z AUTO 32012KT CAVOK 23/09 Q1013 NOSIG
17:30
V
23 °C 10 km+ - 330° 330° 13 kt METAR LFCK 101530Z AUTO 33013KT 300V020 CAVOK 23/10 Q1013 NOSIG
17:00
V
23 °C 10 km+ - 310° 310° 13 kt METAR LFCK 101500Z AUTO 31013KT CAVOK 23/08 Q1013 NOSIG
16:30
V
23 °C 10 km+ - 330° 330° 13 kt METAR LFCK 101430Z AUTO 33013KT CAVOK 23/09 Q1014 NOSIG
16:00
V
22 °C 10 km+ - 310° 310° 16 kt METAR LFCK 101400Z AUTO 31016KT CAVOK 22/08 Q1014 NOSIG
15:30
V
21 °C 10 km+ - 330° 330° 14 kt METAR LFCK 101330Z AUTO 33014KT CAVOK 21/09 Q1014 NOSIG
15:00
V
22 °C 10 km+ 4.800 ft 320° 320° 11 kt METAR LFCK 101300Z AUTO 32011KT 9999 FEW041 BKN048 22/11 Q1014 NOSIG
14:30
V
22 °C 10 km+ - 330° 330° 11 kt METAR LFCK 101230Z AUTO 33011KT 290V360 9999 FEW029 22/12 Q1015 NOSIG
14:00
M
20 °C 10 km+ 2.600 ft 330° 330° 10 kt METAR LFCK 101200Z AUTO 33010KT 290V040 9999 BKN026 BKN031 BKN046 20/13 Q1015 NOSIG
13:30
M
18 °C 10 km+ 2.200 ft 300° 300° 9 kt METAR LFCK 101130Z AUTO 30009KT 280V340 9999 BKN022 BKN028 OVC039 18/13 Q1015
13:00
M
18 °C 10 km+ 2.000 ft 290° 290° 10 kt METAR LFCK 101100Z AUTO 29010KT 9999 BKN020 OVC025 18/12 Q1015 NOSIG
12:30
M
17 °C 10 km+ 1.800 ft 310° 310° 10 kt METAR LFCK 101030Z AUTO 31010KT 9999 BKN018 OVC023 17/13 Q1015
12:00
M
16 °C 10 km+ 1.700 ft 310° 310° 10 kt METAR LFCK 101000Z AUTO 31010KT 9999 OVC017 16/13 Q1016 NOSIG
11:30
M
16 °C 10 km+ 1.600 ft 310° 310° 8 kt METAR LFCK 100930Z AUTO 31008KT 9999 OVC016 16/12 Q1016 NOSIG
11:00
M
15 °C 10 km+ 1.200 ft 300° 300° 8 kt METAR LFCK 100900Z AUTO 30008KT 9999 OVC012 15/13 Q1016
10:30
M
15 °C 10 km+ 1.200 ft 310° 310° 8 kt METAR LFCK 100830Z AUTO 31008KT 9999 OVC012 15/13 Q1016 TEMPO 3000 -DZ BECMG BKN020
10:00
M
15 °C 10 km+ 1.100 ft 300° 300° 9 kt METAR LFCK 100800Z AUTO 30009KT 9999 OVC011 15/12 Q1016 TEMPO 3000 -DZ OVC006
09:30
M
15 °C 10 km+ 1.000 ft 290° 290° 10 kt METAR LFCK 100730Z AUTO 29010KT 9999 OVC010/// 15/13 Q1015 TEMPO 3000 -DZ
09:00
M
14 °C 10 km+ 1.200 ft 290° 290° 10 kt METAR LFCK 100700Z AUTO 29010KT 9999 OVC012 14/12 Q1015 TEMPO 3000 -DZ OVC006
08:30
M
14 °C 10 km+ 1.100 ft 290° 290° 10 kt METAR LFCK 100630Z AUTO 29010KT 9999 BKN011 OVC016 14/12 Q1015 TEMPO 3000 -DZ OVC006
08:00
M
15 °C 10 km+ 1.300 ft 290° 290° 10 kt METAR LFCK 100600Z AUTO 29010KT 9999 BKN013 OVC019 15/12 Q1015 TEMPO 3000 -DZ OVC006
Zgłoś zmianę